Southern Lily — 9VJK4 — position and weather

sailwx.info

Track history (hours):
 
Tides and Currents Weather Stations Pressure Air Temp Water Temp Dewpoint Dewpoint Depression Visibility Wind Speed Wind Dir Waves Ship Positions

Southern Lily

Last reported at 2017-Nov-20 00:30 UTC. Time now 2017-Nov-21 15:46 UTC.
Position S 36°49' E 174°50'.

Length 146 m; draft 5.7 m.

Type: Ship. MMSI: 565050000.

Date/timePositionNaut miles runAvg speedWind from/ knotsBaromVisibWave heightAir tempDewpointWater temp
2017-Nov-20 00:30S 36°49' E 174°50'5 9.1
2017-Nov-20 00:00S 36°44' E 174°50'5 9.9
2017-Nov-19 23:30S 36°40' E 174°54'4 8.4
2017-Nov-19 23:00S 36°37' E 174°57'4 8.1
2017-Nov-19 22:30S 36°33' E 174°59'4 7.7
2017-Nov-19 22:00S 36°29' E 174°59'4 7.3
2017-Nov-19 21:30S 36°26' E 174°60'4 7.2
2017-Nov-19 21:00S 36°22' E 174°59'4 7.3
2017-Nov-19 20:30S 36°19' E 174°59'4 7.3
2017-Nov-19 20:00S 36°15' E 174°58'4 7.7
2017-Nov-19 19:30S 36°11' E 174°57'  
Track history (hours):
 
Tides and Currents Weather Stations Pressure Air Temp Water Temp Dewpoint Dewpoint Depression Visibility Wind Speed Wind Dir Waves Ship Positions

Southern Lily

Last reported at 2017-Nov-20 00:30 UTC. Time now 2017-Nov-21 15:46 UTC.
Position S 36°49' E 174°50'.

Length 146 m; draft 5.7 m.

Type: Ship. MMSI: 565050000.

Date/timePositionNaut miles runAvg speedWind from/ knotsBaromVisibWave heightAir tempDewpointWater temp
2017-Nov-20 00:30S 36°49' E 174°50'5 9.1
2017-Nov-20 00:00S 36°44' E 174°50'5 9.9
2017-Nov-19 23:30S 36°40' E 174°54'4 8.4
2017-Nov-19 23:00S 36°37' E 174°57'4 8.1
2017-Nov-19 22:30S 36°33' E 174°59'4 7.7
2017-Nov-19 22:00S 36°29' E 174°59'4 7.3
2017-Nov-19 21:30S 36°26' E 174°60'4 7.2
2017-Nov-19 21:00S 36°22' E 174°59'4 7.3
2017-Nov-19 20:30S 36°19' E 174°59'4 7.3
2017-Nov-19 20:00S 36°15' E 174°58'4 7.7
2017-Nov-19 19:30S 36°11' E 174°57'  

Dump ship's entire track history